createdAt,value
2019-06-01T00:00:39.987Z,22.93
2019-06-01T00:05:44.583Z,20.65
2019-06-01T00:10:49.542Z,23.35
2019-06-01T00:15:53.934Z,26.37
2019-06-01T00:20:58.150Z,28.47
2019-06-01T00:26:02.370Z,29.40
2019-06-01T00:31:06.640Z,25.85
2019-06-01T00:36:10.886Z,25.97
2019-06-01T00:41:15.114Z,30.65
2019-06-01T00:46:19.342Z,28.83
2019-06-01T00:51:23.533Z,31.40
2019-06-01T00:56:27.761Z,24.98
2019-06-01T01:01:31.987Z,25.72
2019-06-01T01:06:36.201Z,29.70
2019-06-01T01:11:40.480Z,26.82
2019-06-01T01:16:45.498Z,28.52
2019-06-01T01:21:52.149Z,29.42
2019-06-01T01:26:56.793Z,30.80
2019-06-01T01:32:01.127Z,29.12
2019-06-01T01:37:05.362Z,34.90
2019-06-01T01:42:09.580Z,29.95
2019-06-01T01:47:14.407Z,33.23
2019-06-01T01:52:18.733Z,29.50
2019-06-01T01:57:22.965Z,31.85
2019-06-01T02:02:27.163Z,29.80
2019-06-01T02:07:31.366Z,35.03
2019-06-01T02:12:35.617Z,37.78
2019-06-01T02:17:39.826Z,39.45
2019-06-01T02:22:44.034Z,29.32
2019-06-01T02:27:48.244Z,29.85
2019-06-01T02:32:53.816Z,33.23
2019-06-01T02:37:58.645Z,34.55
2019-06-01T02:43:04.245Z,28.65
2019-06-01T02:48:09.106Z,34.13
2019-06-01T02:53:13.326Z,27.80
2019-06-01T02:58:17.548Z,27.27
2019-06-01T03:03:21.958Z,27.42
2019-06-01T03:08:26.848Z,29.10
2019-06-01T03:13:33.780Z,25.30
2019-06-01T03:18:39.842Z,28.62
2019-06-01T03:23:46.562Z,30.80
2019-06-01T03:28:53.649Z,26.45
2019-06-01T03:33:57.881Z,31.07
2019-06-01T03:39:03.971Z,23.27
2019-06-01T03:44:08.556Z,26.17
2019-06-01T03:49:12.715Z,29.75
2019-06-01T03:54:16.932Z,26.55
2019-06-01T03:59:21.234Z,26.97
2019-06-01T04:04:25.450Z,28.57
2019-06-01T04:09:29.652Z,26.55
2019-06-01T04:14:33.893Z,28.25
2019-06-01T04:19:38.098Z,26.65
2019-06-01T04:24:42.320Z,27.22
2019-06-01T04:29:46.511Z,27.55
2019-06-01T04:34:50.713Z,29.72
2019-06-01T04:39:54.922Z,29.27
2019-06-01T04:44:59.124Z,31.48
2019-06-01T04:50:04.540Z,29.10
2019-06-01T04:55:09.111Z,29.18
2019-06-01T05:00:25.985Z,28.60
2019-06-01T05:05:20.250Z,30.97
2019-06-01T05:10:24.457Z,28.12
2019-06-01T05:15:28.687Z,31.65
2019-06-01T05:20:32.900Z,28.52
2019-06-01T05:25:37.116Z,25.90
2019-06-01T05:30:41.324Z,27.73
2019-06-01T05:35:45.528Z,28.47
2019-06-01T05:40:49.754Z,25.65
2019-06-01T05:45:53.972Z,32.78
2019-06-01T05:50:58.182Z,29.95
2019-06-01T05:56:02.415Z,27.98
2019-06-01T06:01:06.618Z,22.67
2019-06-01T06:06:11.683Z,26.60
2019-06-01T06:11:16.973Z,26.35
2019-06-01T06:16:22.594Z,29.23
2019-06-01T06:21:26.761Z,28.70
2019-06-01T06:26:31.004Z,24.12
2019-06-01T06:31:35.221Z,26.73
2019-06-01T06:36:39.434Z,23.50
2019-06-01T06:41:43.649Z,22.65
2019-06-01T06:46:47.876Z,21.85
2019-06-01T06:51:52.070Z,28.47
2019-06-01T06:56:56.286Z,28.85
2019-06-01T07:02:00.528Z,25.95
2019-06-01T07:07:04.708Z,22.58
2019-06-01T07:12:08.944Z,22.95
2019-06-01T07:17:15.637Z,20.90
2019-06-01T07:22:19.749Z,20.23
2019-06-01T07:27:24.177Z,21.17
2019-06-01T07:32:28.722Z,21.95
2019-06-01T07:37:33.121Z,17.45
2019-06-01T07:42:37.331Z,21.45
2019-06-01T07:47:41.536Z,22.77
2019-06-01T07:52:45.732Z,23.12
2019-06-01T07:57:49.953Z,16.85
2019-06-01T08:02:54.146Z,17.85
2019-06-01T08:07:58.353Z,13.65
2019-06-01T08:13:02.612Z,10.35
2019-06-01T08:18:06.913Z,11.85
2019-06-01T08:23:11.115Z,14.83
2019-06-01T08:28:15.330Z,11.00
2019-06-01T08:33:19.506Z,9.08
2019-06-01T08:38:23.718Z,14.40
2019-06-01T08:43:27.947Z,12.37
2019-06-01T08:48:32.146Z,16.17
2019-06-01T08:53:36.406Z,10.82
2019-06-01T08:58:40.599Z,10.98
2019-06-01T09:03:46.800Z,13.13
2019-06-01T09:08:50.772Z,11.30
2019-06-01T09:13:55.006Z,10.30
2019-06-01T09:18:59.219Z,10.32
2019-06-01T09:24:03.423Z,8.98
2019-06-01T09:29:07.636Z,8.00
2019-06-01T09:34:11.854Z,9.90
2019-06-01T09:39:16.075Z,9.93
2019-06-01T09:44:20.325Z,10.38
2019-06-01T09:49:24.519Z,8.43
2019-06-01T09:54:29.412Z,7.83
2019-06-01T09:59:34.642Z,7.55
2019-06-01T10:04:39.605Z,12.33
2019-06-01T10:09:43.854Z,10.68
2019-06-01T10:14:48.068Z,9.05
2019-06-01T10:19:52.272Z,12.15
2019-06-01T10:24:56.492Z,8.43
2019-06-01T10:30:00.752Z,6.55
2019-06-01T10:35:05.845Z,9.78
2019-06-01T10:40:11.651Z,13.53
2019-06-01T10:45:16.852Z,8.60
2019-06-01T10:50:21.069Z,10.78
2019-06-01T10:55:25.259Z,10.13
2019-06-01T11:00:39.658Z,7.67
2019-06-01T11:05:36.750Z,7.95
2019-06-01T11:10:41.040Z,9.05
2019-06-01T11:15:45.178Z,9.55
2019-06-01T11:20:49.377Z,6.67
2019-06-01T11:25:53.582Z,6.17
2019-06-01T11:30:57.767Z,4.92
2019-06-01T11:36:01.970Z,5.47
2019-06-01T11:41:06.176Z,5.17
2019-06-01T11:46:10.381Z,10.03
2019-06-01T11:51:14.596Z,5.42
2019-06-01T11:56:18.826Z,6.80
2019-06-01T12:01:23.155Z,6.30
2019-06-01T12:06:27.337Z,5.17
2019-06-01T12:11:31.543Z,5.62
2019-06-01T12:16:36.387Z,6.45
2019-06-01T12:21:40.950Z,7.15
2019-06-01T12:26:45.546Z,4.17
2019-06-01T12:31:49.845Z,7.55
2019-06-01T12:36:54.283Z,4.37
2019-06-01T12:41:58.491Z,3.85
2019-06-01T12:47:02.696Z,5.62
2019-06-01T12:52:06.936Z,6.10
2019-06-01T12:57:11.278Z,5.40
2019-06-01T13:02:15.442Z,5.75
2019-06-01T13:07:19.653Z,5.87
2019-06-01T13:12:23.838Z,8.30
2019-06-01T13:17:28.036Z,6.45
2019-06-01T13:22:32.246Z,3.00
2019-06-01T13:27:38.588Z,4.75
2019-06-01T13:32:42.553Z,4.20
2019-06-01T13:37:46.868Z,3.67
2019-06-01T13:42:51.326Z,4.12
2019-06-01T13:47:55.616Z,4.05
2019-06-01T13:52:59.821Z,2.80
2019-06-01T13:58:04.019Z,5.65
2019-06-01T14:03:08.220Z,3.85
2019-06-01T14:08:27.845Z,3.75
2019-06-01T14:13:18.509Z,4.60
2019-06-01T14:18:22.715Z,6.58
2019-06-01T14:23:26.899Z,3.55
2019-06-01T14:28:31.092Z,3.08
2019-06-01T14:33:35.287Z,3.05
2019-06-01T14:38:46.823Z,2.83
2019-06-01T14:43:45.440Z,4.08
2019-06-01T14:48:51.583Z,4.15
2019-06-01T14:53:55.850Z,5.75
2019-06-01T14:59:02.034Z,3.80
2019-06-01T15:04:06.035Z,6.53
2019-06-01T15:09:18.303Z,3.75
2019-06-01T15:14:16.305Z,3.95
2019-06-01T15:19:20.497Z,2.33
2019-06-01T15:24:24.933Z,1.85
2019-06-01T15:29:29.145Z,3.47
2019-06-01T15:34:33.422Z,2.83
2019-06-01T15:39:37.617Z,2.50
2019-06-01T15:44:41.815Z,2.00
2019-06-01T15:49:46.006Z,2.17
2019-06-01T15:54:50.225Z,6.03
2019-06-01T15:59:54.601Z,2.75
2019-06-01T16:04:59.285Z,2.17
2019-06-01T16:10:06.475Z,3.20
2019-06-01T16:15:10.192Z,2.55
2019-06-01T16:20:14.600Z,2.85
2019-06-01T16:25:18.822Z,2.40
2019-06-01T16:30:23.025Z,2.83
2019-06-01T16:35:27.242Z,2.12
2019-06-01T16:40:31.441Z,2.15
2019-06-01T16:45:35.680Z,2.95
2019-06-01T16:50:39.871Z,2.58
2019-06-01T16:55:44.055Z,2.67
2019-06-01T17:00:48.273Z,2.20
2019-06-01T17:05:52.452Z,6.10
2019-06-01T17:10:56.742Z,4.37
2019-06-01T17:16:03.026Z,3.20
2019-06-01T17:21:07.628Z,4.70
2019-06-01T17:26:11.867Z,3.52
2019-06-01T17:31:16.074Z,2.67
2019-06-01T17:36:20.729Z,4.83
2019-06-01T17:41:24.905Z,6.97
2019-06-01T17:46:29.122Z,4.87
2019-06-01T17:51:33.344Z,2.40
2019-06-01T17:56:37.541Z,3.45
2019-06-01T18:01:42.738Z,4.05
2019-06-01T18:06:47.064Z,5.62
2019-06-01T18:11:51.245Z,4.17
2019-06-01T18:16:55.469Z,5.95
2019-06-01T18:21:59.676Z,5.28
2019-06-01T18:27:04.829Z,4.70
2019-06-01T18:32:09.518Z,8.13
2019-06-01T18:37:13.806Z,5.60
2019-06-01T18:42:18.963Z,38.58
2019-06-01T18:47:32.217Z,10.15
2019-06-01T18:52:29.052Z,14.53
2019-06-01T18:57:34.455Z,8.08
2019-06-01T19:02:38.666Z,11.78
2019-06-01T19:07:42.898Z,8.03
2019-06-01T19:12:47.133Z,7.72
2019-06-01T19:17:51.674Z,11.63
2019-06-01T19:22:55.897Z,8.03
2019-06-01T19:28:00.118Z,11.88
2019-06-01T19:33:04.796Z,7.30
2019-06-01T19:38:09.472Z,9.53
2019-06-01T19:43:13.692Z,11.20
2019-06-01T19:48:18.869Z,11.05
2019-06-01T19:53:23.309Z,11.97
2019-06-01T19:58:27.542Z,12.13
2019-06-01T20:03:31.852Z,14.07
2019-06-01T20:08:36.073Z,23.65
2019-06-01T20:13:40.301Z,34.08
2019-06-01T20:18:44.574Z,18.45
2019-06-01T20:23:48.918Z,18.62
2019-06-01T20:28:53.130Z,12.95
2019-06-01T20:33:58.063Z,21.65
2019-06-01T20:39:04.163Z,15.75
2019-06-01T20:44:08.308Z,23.52
2019-06-01T20:49:12.765Z,16.32
2019-06-01T20:54:16.975Z,22.82
2019-06-01T20:59:22.937Z,17.30
2019-06-01T21:04:27.266Z,16.67
2019-06-01T21:09:31.489Z,20.68
2019-06-01T21:14:36.957Z,11.18
2019-06-01T21:19:41.494Z,9.63
2019-06-01T21:24:45.680Z,18.05
2019-06-01T21:29:50.092Z,16.52
2019-06-01T21:34:54.296Z,18.25
2019-06-01T21:39:58.534Z,17.05
2019-06-01T21:45:02.750Z,25.85
2019-06-01T21:50:07.384Z,12.55
2019-06-01T21:55:11.563Z,14.58
2019-06-01T22:00:22.626Z,13.03
2019-06-01T22:05:27.336Z,12.45
2019-06-01T22:10:31.669Z,13.15
2019-06-01T22:15:35.885Z,14.63
2019-06-01T22:20:40.118Z,10.90
2019-06-01T22:25:44.318Z,17.02
2019-06-01T22:30:48.528Z,16.77
2019-06-01T22:35:52.721Z,10.53
2019-06-01T22:40:56.941Z,12.73
2019-06-01T22:46:01.158Z,13.32
2019-06-01T22:51:05.663Z,13.22
2019-06-01T22:56:09.883Z,14.73
2019-06-01T23:01:14.111Z,11.15
2019-06-01T23:06:18.327Z,11.90
2019-06-01T23:11:25.333Z,13.78
2019-06-01T23:16:29.810Z,12.20
2019-06-01T23:21:34.139Z,15.68
2019-06-01T23:26:38.327Z,14.13
2019-06-01T23:31:42.531Z,12.80
2019-06-01T23:36:46.754Z,15.30
2019-06-01T23:41:50.944Z,15.38
2019-06-01T23:46:55.150Z,15.35
2019-06-01T23:51:59.392Z,15.08
2019-06-01T23:57:03.652Z,15.68
